Time;durP1;ratioP1;P1;durP2;ratioP2;P2;SDS_P1;SDS_P2;PMS_P1;PMS_P2;Temp;Humidity;BMP_temperature;BMP_pressure;BME280_temperature;BME280_humidity;BME280_pressure;Samples;Min_cycle;Max_cycle;Signal;HPM_P1;HPM_P2
2023/10/09 04:01:28;;;;;;;;;;;15.20;99.90;;;;;;5579123;23;20376;-68
2023/10/09 04:04:00;;;;;;;;;;;15.10;99.90;;;;;;4994879;28;20364;-67
2023/10/09 04:06:30;;;;;;;;;;;15.00;99.90;;;;;;4995575;28;19950;-68
2023/10/09 04:08:58;;;;;;;;;;;15.10;99.90;;;;;;4993899;28;20003;-68
2023/10/09 04:11:24;;;;;;;;;;;15.20;99.90;;;;;;4995175;28;19999;-69
2023/10/09 04:13:52;;;;;;;;;;;15.30;99.90;;;;;;4994999;28;19918;-68
2023/10/09 04:16:51;;;;;;;;;;;15.20;99.90;;;;;;4995325;28;19910;-68
2023/10/09 04:19:11;;;;;;;;;;;15.10;99.90;;;;;;4994557;28;20332;-68
2023/10/09 04:21:37;;;;;;;;;;;15.00;99.90;;;;;;4995075;28;19937;-68
2023/10/09 04:26:44;;;;;;;;;;;15.00;99.90;;;;;;4995265;28;19909;-68
2023/10/09 04:29:10;;;;;;;;;;;15.00;99.90;;;;;;4995616;28;19918;-68
2023/10/09 04:31:37;;;;;;;;;;;14.80;99.90;;;;;;4994877;28;19910;-68
2023/10/09 04:34:22;;;;;;;;;;;15.00;99.90;;;;;;4995539;28;19965;-68
2023/10/09 04:36:49;;;;;;;;;;;14.80;99.90;;;;;;4995078;28;20001;-68
2023/10/09 04:39:16;;;;;;;;;;;15.00;99.90;;;;;;4994812;28;19936;-66
2023/10/09 04:44:19;;;;;;;;;;;15.00;99.90;;;;;;4994084;28;20472;-67
2023/10/09 04:47:17;;;;;;;;;;;15.00;99.90;;;;;;4994629;28;19913;-66
2023/10/09 04:49:37;;;;;;;;;;;15.00;99.90;;;;;;4993990;28;19914;-66
2023/10/09 04:52:09;;;;;;;;;;;14.90;99.90;;;;;;4994255;28;19912;-66
2023/10/09 04:55:02;;;;;;;;;;;14.90;99.90;;;;;;4994300;28;19921;-65
2023/10/09 04:57:26;;;;;;;;;;;14.80;99.90;;;;;;4994497;28;19916;-65
2023/10/09 04:59:51;;;;;;;;;;;14.80;99.90;;;;;;4994276;28;20004;-65
2023/10/09 05:02:19;;;;;;;;;;;14.80;99.90;;;;;;4994090;28;19964;-65
2023/10/09 05:04:51;;;;;;;;;;;14.80;99.90;;;;;;4994285;28;19909;-66
2023/10/09 05:07:22;;;;;;;;;;;14.80;99.90;;;;;;4992976;28;19917;-66
2023/10/09 05:10:14;;;;;;;;;;;14.80;99.90;;;;;;4994482;28;19910;-67
2023/10/09 05:12:46;;;;;;;;;;;14.80;99.90;;;;;;4994452;28;19992;-66
2023/10/09 05:15:13;;;;;;;;;;;14.80;99.90;;;;;;4994439;28;20007;-68
2023/10/09 05:17:39;;;;;;;;;;;14.90;99.90;;;;;;4993908;28;20053;-67
2023/10/09 05:23:07;;;;;;;;;;;14.90;99.90;;;;;;4985866;28;20071;-66
2023/10/09 05:28:48;;;;;;;;;;;14.90;99.90;;;;;;4994016;28;19952;-67
2023/10/09 05:31:44;;;;;;;;;;;14.90;99.90;;;;;;4994156;28;19917;-67
2023/10/09 05:34:01;;;;;;;;;;;14.80;99.90;;;;;;4980006;28;19914;-66
2023/10/09 05:41:47;;;;;;;;;;;14.60;99.90;;;;;;4978623;28;19918;-67
2023/10/09 05:45:30;;;;;;;;;;;14.50;99.90;;;;;;4978769;28;19965;-66
2023/10/09 05:47:29;;;;;;;;;;;14.50;99.90;;;;;;4978064;28;19910;-66
2023/10/09 05:49:57;;;;;;;;;;;14.40;99.90;;;;;;4978070;28;19911;-66
2023/10/09 05:59:32;;;;;;;;;;;14.40;99.90;;;;;;4978299;28;19921;-67
2023/10/09 06:08:47;;;;;;;;;;;14.50;99.90;;;;;;4997692;28;19953;-66
2023/10/09 06:14:03;;;;;;;;;;;14.70;99.90;;;;;;4997074;28;19914;-65
2023/10/09 06:16:41;;;;;;;;;;;14.80;99.90;;;;;;4997542;28;19913;-66
2023/10/09 06:25:08;;;;;;;;;;;15.00;99.90;;;;;;4998937;28;19914;-67
2023/10/09 06:28:04;;;;;;;;;;;15.00;99.90;;;;;;5000374;28;19956;-67
2023/10/09 06:33:19;;;;;;;;;;;15.10;99.90;;;;;;4996859;28;19946;-65
2023/10/09 06:35:35;;;;;;;;;;;15.20;99.90;;;;;;4996586;28;19947;-66
2023/10/09 06:43:17;;;;;;;;;;;15.10;99.90;;;;;;4997178;28;20444;-68
2023/10/09 06:45:45;;;;;;;;;;;15.20;99.90;;;;;;4995933;28;20357;-67
2023/10/09 06:58:57;;;;;;;;;;;15.70;99.90;;;;;;4996883;28;19961;-66
2023/10/09 07:01:39;;;;;;;;;;;15.80;99.90;;;;;;4996697;28;19922;-66
2023/10/09 07:04:18;;;;;;;;;;;15.70;99.90;;;;;;4996123;28;20357;-67
2023/10/09 07:17:00;;;;;;;;;;;16.20;99.90;;;;;;4996460;28;19910;-67
2023/10/09 07:19:43;;;;;;;;;;;16.20;99.90;;;;;;4995745;28;19913;-67
2023/10/09 07:24:49;;;;;;;;;;;16.20;99.90;;;;;;4996589;28;20353;-66
2023/10/09 07:27:42;;;;;;;;;;;16.20;99.90;;;;;;4995860;28;19910;-66
2023/10/09 07:30:24;;;;;;;;;;;16.30;99.90;;;;;;4995704;28;19910;-66
2023/10/09 07:32:52;;;;;;;;;;;16.30;99.90;;;;;;4995514;28;19960;-66
2023/10/09 07:35:46;;;;;;;;;;;16.30;99.90;;;;;;4995400;28;19920;-67
2023/10/09 07:38:03;;;;;;;;;;;16.30;99.90;;;;;;4995410;28;20289;-66
2023/10/09 07:40:31;;;;;;;;;;;16.40;99.90;;;;;;4995418;28;20066;-66
2023/10/09 07:43:04;;;;;;;;;;;16.40;99.90;;;;;;4996057;28;19917;-67
2023/10/09 07:48:05;;;;;;;;;;;16.50;99.90;;;;;;4995745;28;19961;-67
2023/10/09 07:50:49;;;;;;;;;;;16.60;99.90;;;;;;4995520;28;19940;-67
2023/10/09 07:53:17;;;;;;;;;;;16.60;99.90;;;;;;4996012;28;19956;-66
2023/10/09 07:56:30;;;;;;;;;;;16.70;99.90;;;;;;4995412;28;19914;-66
2023/10/09 07:58:45;;;;;;;;;;;16.60;99.90;;;;;;4991928;28;19921;-66
2023/10/09 08:01:34;;;;;;;;;;;16.70;99.90;;;;;;4995172;28;19928;-66
2023/10/09 08:04:10;;;;;;;;;;;16.70;99.90;;;;;;4995166;28;20004;-66
2023/10/09 08:06:39;;;;;;;;;;;16.90;99.90;;;;;;4995426;28;20458;-66
2023/10/09 08:17:11;;;;;;;;;;;17.40;99.90;;;;;;4995296;28;19917;-67
2023/10/09 08:19:51;;;;;;;;;;;17.40;99.90;;;;;;4995113;28;19976;-66
2023/10/09 08:24:58;;;;;;;;;;;17.40;99.90;;;;;;4995053;28;19933;-67
2023/10/09 08:35:35;;;;;;;;;;;17.70;99.90;;;;;;4994880;28;19921;-67
2023/10/09 08:38:11;;;;;;;;;;;17.80;99.90;;;;;;4993877;28;21242;-67
2023/10/09 08:40:39;;;;;;;;;;;17.90;99.90;;;;;;4994600;28;19956;-66
2023/10/09 08:43:14;;;;;;;;;;;18.10;99.90;;;;;;4994423;28;20376;-66
2023/10/09 08:45:44;;;;;;;;;;;18.20;99.90;;;;;;4994667;28;19980;-66
2023/10/09 08:48:15;;;;;;;;;;;18.50;99.90;;;;;;4994145;28;19945;-66
2023/10/09 08:50:44;;;;;;;;;;;18.80;99.90;;;;;;4994579;28;20138;-67
2023/10/09 08:53:10;;;;;;;;;;;19.10;99.90;;;;;;4994477;28;20356;-66
2023/10/09 08:55:40;;;;;;;;;;;19.10;99.90;;;;;;4994590;28;19913;-66
2023/10/09 08:58:13;;;;;;;;;;;19.20;99.90;;;;;;4993387;28;20365;-66
2023/10/09 09:00:42;;;;;;;;;;;19.20;99.90;;;;;;4994342;28;20004;-67
2023/10/09 09:03:08;;;;;;;;;;;19.50;99.90;;;;;;4994485;28;20055;-67
2023/10/09 09:05:35;;;;;;;;;;;19.50;99.90;;;;;;4992764;28;19957;-66
2023/10/09 09:08:02;;;;;;;;;;;19.70;99.90;;;;;;4994157;28;19916;-66
2023/10/09 09:10:35;;;;;;;;;;;19.80;99.90;;;;;;4993516;28;19910;-67
2023/10/09 09:13:03;;;;;;;;;;;20.10;99.90;;;;;;4994605;28;20384;-67
2023/10/09 09:15:32;;;;;;;;;;;20.30;99.90;;;;;;4993930;28;19913;-66
2023/10/09 09:18:10;;;;;;;;;;;20.40;99.90;;;;;;4994081;28;19910;-69
2023/10/09 09:20:45;;;;;;;;;;;20.50;99.90;;;;;;4993557;28;19917;-67
2023/10/09 09:23:12;;;;;;;;;;;20.70;99.90;;;;;;4994304;28;20003;-67
2023/10/09 09:25:59;;;;;;;;;;;20.80;99.90;;;;;;4993841;28;19917;-67
2023/10/09 09:28:26;;;;;;;;;;;21.10;99.90;;;;;;4994167;28;19910;-67
2023/10/09 09:30:53;;;;;;;;;;;21.10;99.90;;;;;;4994153;28;19910;-67
2023/10/09 09:36:04;;;;;;;;;;;21.30;99.90;;;;;;4999411;28;20019;-67
2023/10/09 09:38:51;;;;;;;;;;;21.40;99.90;;;;;;4996267;28;19917;-66
2023/10/09 09:41:24;;;;;;;;;;;21.50;99.70;;;;;;4995128;28;20380;-67
2023/10/09 09:44:04;;;;;;;;;;;21.60;99.60;;;;;;4995009;28;19909;-67
2023/10/09 09:46:34;;;;;;;;;;;21.90;99.40;;;;;;4995064;28;19910;-67
2023/10/09 09:49:00;;;;;;;;;;;22.30;98.90;;;;;;4995215;28;19917;-66
2023/10/09 09:51:29;;;;;;;;;;;22.60;98.40;;;;;;4994476;28;20365;-68
2023/10/09 09:53:55;;;;;;;;;;;22.90;97.90;;;;;;4994308;28;19917;-67
2023/10/09 09:56:24;;;;;;;;;;;23.10;97.30;;;;;;4992807;28;19918;-67
2023/10/09 09:58:53;;;;;;;;;;;23.30;97.20;;;;;;4994075;28;19910;-67
2023/10/09 10:01:24;;;;;;;;;;;23.20;97.10;;;;;;4993919;28;20013;-68
2023/10/09 10:03:53;;;;;;;;;;;23.30;96.90;;;;;;4993794;28;19914;-67
2023/10/09 10:06:19;;;;;;;;;;;23.20;96.90;;;;;;4993863;28;20426;-66
2023/10/09 10:08:50;;;;;;;;;;;22.80;97.00;;;;;;4993809;28;20016;-68
2023/10/09 10:11:34;;;;;;;;;;;22.50;97.50;;;;;;4993880;28;20376;-66
2023/10/09 10:14:04;;;;;;;;;;;22.20;97.80;;;;;;4993916;28;19940;-68
2023/10/09 10:16:34;;;;;;;;;;;21.90;98.20;;;;;;4994377;28;19935;-66
2023/10/09 10:19:07;;;;;;;;;;;21.70;98.30;;;;;;4993988;28;19917;-66
2023/10/09 10:21:37;;;;;;;;;;;21.60;98.40;;;;;;4996773;28;19910;-65
2023/10/09 10:24:06;;;;;;;;;;;21.70;98.40;;;;;;4998074;28;20001;-65
2023/10/09 10:26:33;;;;;;;;;;;22.00;98.20;;;;;;4997530;28;20004;-65
2023/10/09 10:29:22;;;;;;;;;;;23.10;97.40;;;;;;4997786;28;19914;-65
2023/10/09 10:31:55;;;;;;;;;;;25.40;95.30;;;;;;4995885;28;20008;-66
2023/10/09 10:34:23;;;;;;;;;;;27.30;92.50;;;;;;4996875;28;19918;-66
2023/10/09 10:36:58;;;;;;;;;;;28.80;90.80;;;;;;4995917;28;19910;-65
2023/10/09 10:39:42;;;;;;;;;;;30.00;88.00;;;;;;4997097;28;19925;-66
2023/10/09 10:43:09;;;;;;;;;;;29.20;86.10;;;;;;4995778;28;20000;-66
2023/10/09 10:44:54;;;;;;;;;;;27.50;88.00;;;;;;4992925;28;20387;-67
2023/10/09 10:47:32;;;;;;;;;;;26.10;90.40;;;;;;4997607;28;20005;-65
2023/10/09 10:49:58;;;;;;;;;;;25.00;91.40;;;;;;4996826;28;19996;-66
2023/10/09 10:52:35;;;;;;;;;;;24.10;92.60;;;;;;4997155;28;19910;-65
2023/10/09 10:55:17;;;;;;;;;;;23.40;93.50;;;;;;4997206;28;20009;-66
2023/10/09 10:58:02;;;;;;;;;;;23.00;94.10;;;;;;4996642;28;19976;-65
2023/10/09 11:01:11;;;;;;;;;;;22.70;94.80;;;;;;4996312;28;19917;-65
2023/10/09 11:03:55;;;;;;;;;;;22.50;95.10;;;;;;4996150;28;20015;-65
2023/10/09 11:06:37;;;;;;;;;;;22.30;95.50;;;;;;4996644;28;19910;-65
2023/10/09 11:09:21;;;;;;;;;;;22.10;95.70;;;;;;4996971;28;19910;-65
2023/10/09 11:11:55;;;;;;;;;;;22.10;96.00;;;;;;4996365;28;19917;-68
2023/10/09 11:14:23;;;;;;;;;;;22.00;96.00;;;;;;4996494;28;19914;-64
2023/10/09 11:16:49;;;;;;;;;;;22.10;96.20;;;;;;4997470;28;19932;-65
2023/10/09 11:24:35;;;;;;;;;;;22.20;96.40;;;;;;4996531;28;20045;-65
2023/10/09 11:27:07;;;;;;;;;;;22.20;96.30;;;;;;4995833;28;19914;-65
2023/10/09 11:32:18;;;;;;;;;;;22.40;96.00;;;;;;4995456;28;20345;-65
2023/10/09 11:34:53;;;;;;;;;;;22.50;95.70;;;;;;4995767;28;20371;-66
2023/10/09 11:37:38;;;;;;;;;;;22.70;95.40;;;;;;4994782;28;19910;-66
2023/10/09 11:40:21;;;;;;;;;;;22.80;95.20;;;;;;4996989;28;20264;-66
2023/10/09 11:42:49;;;;;;;;;;;23.00;95.00;;;;;;4995818;28;19917;-65
2023/10/09 11:45:20;;;;;;;;;;;23.10;94.70;;;;;;4995774;28;19910;-66
2023/10/09 11:47:56;;;;;;;;;;;23.20;94.70;;;;;;4995677;28;20288;-66
2023/10/09 11:50:50;;;;;;;;;;;23.30;94.40;;;;;;4995259;28;19916;-65
2023/10/09 11:55:52;;;;;;;;;;;23.60;93.90;;;;;;4995579;28;20349;-65
2023/10/09 11:58:24;;;;;;;;;;;23.60;94.20;;;;;;4995644;28;20320;-65
2023/10/09 12:00:50;;;;;;;;;;;23.60;94.00;;;;;;4994230;28;19968;-66
2023/10/09 12:03:16;;;;;;;;;;;24.00;93.60;;;;;;4995318;28;19948;-66
2023/10/09 12:05:45;;;;;;;;;;;24.00;93.40;;;;;;4995087;28;19909;-65
2023/10/09 12:08:11;;;;;;;;;;;24.00;93.30;;;;;;4995432;28;20005;-66
2023/10/09 12:10:40;;;;;;;;;;;24.10;93.40;;;;;;4995493;28;19910;-66
2023/10/09 12:13:06;;;;;;;;;;;24.30;93.10;;;;;;4995443;28;19917;-66
2023/10/09 12:15:37;;;;;;;;;;;24.40;93.20;;;;;;4995362;28;19918;-64
2023/10/09 12:18:14;;;;;;;;;;;24.60;93.10;;;;;;4995809;28;19922;-66
2023/10/09 12:20:40;;;;;;;;;;;24.70;92.60;;;;;;4995746;28;19913;-66
2023/10/09 12:23:06;;;;;;;;;;;24.70;92.70;;;;;;4995823;28;19914;-65
2023/10/09 12:25:32;;;;;;;;;;;24.80;92.60;;;;;;4995795;28;20395;-66
2023/10/09 12:28:04;;;;;;;;;;;24.90;92.60;;;;;;4996615;28;19910;-66
2023/10/09 12:30:29;;;;;;;;;;;25.00;92.50;;;;;;4997403;28;19910;-65
2023/10/09 12:32:58;;;;;;;;;;;25.10;92.00;;;;;;4993955;28;19917;-65
2023/10/09 12:35:24;;;;;;;;;;;25.10;92.20;;;;;;4994748;28;19920;-65
2023/10/09 12:37:51;;;;;;;;;;;25.20;92.20;;;;;;4995134;28;20088;-64
2023/10/09 12:40:23;;;;;;;;;;;25.00;92.40;;;;;;4995442;28;20357;-65
2023/10/09 12:42:52;;;;;;;;;;;24.90;92.30;;;;;;4997116;28;19912;-64
2023/10/09 12:45:25;;;;;;;;;;;24.90;92.20;;;;;;4996562;28;19910;-65
2023/10/09 12:47:51;;;;;;;;;;;24.70;92.40;;;;;;4994159;28;20004;-65
2023/10/09 12:50:27;;;;;;;;;;;24.50;92.80;;;;;;4994908;28;20345;-64
2023/10/09 12:52:53;;;;;;;;;;;24.40;92.60;;;;;;4995327;28;20265;-65
2023/10/09 12:55:20;;;;;;;;;;;24.40;93.00;;;;;;4995124;28;19914;-64
2023/10/09 12:57:47;;;;;;;;;;;24.50;93.10;;;;;;4995071;28;19963;-65
2023/10/09 13:00:13;;;;;;;;;;;24.40;93.20;;;;;;4995370;28;19914;-65
2023/10/09 13:02:43;;;;;;;;;;;24.50;93.10;;;;;;4994940;28;19929;-66
2023/10/09 13:05:10;;;;;;;;;;;24.50;93.20;;;;;;4995462;28;20368;-65
2023/10/09 13:07:35;;;;;;;;;;;24.70;93.00;;;;;;4995225;28;19910;-66
2023/10/09 13:10:12;;;;;;;;;;;24.80;92.90;;;;;;4995467;28;19921;-67
2023/10/09 13:12:43;;;;;;;;;;;24.70;92.80;;;;;;4995663;28;19957;-66
2023/10/09 13:15:09;;;;;;;;;;;24.70;92.90;;;;;;4995800;28;19918;-66
2023/10/09 13:17:38;;;;;;;;;;;24.60;93.10;;;;;;4996122;28;20304;-65
2023/10/09 13:20:12;;;;;;;;;;;24.60;93.00;;;;;;4996759;28;19917;-64
2023/10/09 13:22:41;;;;;;;;;;;24.60;93.00;;;;;;4998261;28;19937;-66
2023/10/09 13:25:07;;;;;;;;;;;24.70;92.80;;;;;;4998789;28;19910;-65
2023/10/09 13:27:34;;;;;;;;;;;24.70;92.60;;;;;;4998785;28;19910;-65
2023/10/09 13:30:05;;;;;;;;;;;24.70;92.40;;;;;;4998554;28;19910;-65
2023/10/09 13:32:35;;;;;;;;;;;24.80;92.30;;;;;;4997732;28;20072;-65
2023/10/09 13:35:05;;;;;;;;;;;24.80;92.30;;;;;;4996417;28;19918;-65
2023/10/09 13:37:36;;;;;;;;;;;24.70;92.50;;;;;;4998329;28;20008;-65
2023/10/09 13:40:11;;;;;;;;;;;24.80;92.50;;;;;;4997241;28;19914;-64
2023/10/09 13:42:37;;;;;;;;;;;24.80;92.50;;;;;;4996169;28;20296;-64
2023/10/09 13:45:07;;;;;;;;;;;25.10;92.00;;;;;;4997359;28;19960;-65
2023/10/09 13:47:33;;;;;;;;;;;25.30;91.80;;;;;;4997645;28;19921;-65
2023/10/09 13:49:59;;;;;;;;;;;25.40;91.50;;;;;;4997619;28;19910;-65
2023/10/09 13:52:25;;;;;;;;;;;25.30;91.80;;;;;;4996292;28;19931;-64
2023/10/09 13:54:50;;;;;;;;;;;25.40;91.60;;;;;;4996213;28;20435;-64
2023/10/09 13:57:16;;;;;;;;;;;25.40;91.60;;;;;;5000667;28;19913;-64
2023/10/09 13:59:43;;;;;;;;;;;25.40;91.60;;;;;;4999733;28;19910;-64
2023/10/09 14:02:09;;;;;;;;;;;25.40;91.70;;;;;;4999415;28;19953;-64
2023/10/09 14:04:35;;;;;;;;;;;25.30;91.70;;;;;;4999795;28;19910;-64
2023/10/09 14:07:01;;;;;;;;;;;25.30;91.90;;;;;;4999675;28;19916;-64
2023/10/09 14:09:45;;;;;;;;;;;25.30;92.00;;;;;;4999780;28;19917;-66
2023/10/09 14:12:11;;;;;;;;;;;25.10;92.10;;;;;;4999921;28;20408;-66
2023/10/09 14:14:40;;;;;;;;;;;25.20;92.10;;;;;;4999515;28;19913;-66
2023/10/09 14:17:11;;;;;;;;;;;25.20;92.30;;;;;;5000323;28;19910;-67
2023/10/09 14:19:37;;;;;;;;;;;25.10;92.50;;;;;;4998347;28;19917;-66
2023/10/09 14:22:05;;;;;;;;;;;25.10;92.40;;;;;;4997757;28;19916;-65
2023/10/09 14:24:32;;;;;;;;;;;25.10;92.50;;;;;;4998965;28;20436;-65
2023/10/09 14:26:59;;;;;;;;;;;25.10;92.40;;;;;;4999206;28;19910;-64
2023/10/09 14:29:26;;;;;;;;;;;25.00;92.40;;;;;;4998005;28;20288;-64
2023/10/09 14:32:00;;;;;;;;;;;24.90;92.60;;;;;;4998100;28;19910;-65
2023/10/09 14:34:32;;;;;;;;;;;24.90;92.60;;;;;;4999315;28;20455;-64
2023/10/09 14:37:00;;;;;;;;;;;24.80;92.70;;;;;;4998514;28;19909;-66
2023/10/09 14:39:26;;;;;;;;;;;24.90;92.90;;;;;;4997800;28;19910;-66
2023/10/09 14:41:54;;;;;;;;;;;24.90;92.80;;;;;;4998180;28;19953;-66
2023/10/09 14:44:20;;;;;;;;;;;24.90;92.90;;;;;;4998127;28;19910;-66
2023/10/09 14:46:45;;;;;;;;;;;24.80;92.70;;;;;;4998136;28;19936;-65
2023/10/09 14:49:14;;;;;;;;;;;24.80;92.60;;;;;;4997739;28;19914;-67
2023/10/09 14:51:39;;;;;;;;;;;24.80;92.30;;;;;;4998261;28;20280;-66
2023/10/09 14:54:07;;;;;;;;;;;24.70;92.50;;;;;;4997928;28;19916;-65
2023/10/09 14:56:36;;;;;;;;;;;24.70;92.40;;;;;;4997777;28;19910;-66
2023/10/09 14:59:02;;;;;;;;;;;24.70;92.20;;;;;;4997243;28;19968;-66
2023/10/09 15:01:29;;;;;;;;;;;24.70;92.30;;;;;;4997054;28;19918;-65
2023/10/09 15:03:57;;;;;;;;;;;24.50;92.30;;;;;;4998345;28;19964;-67
2023/10/09 15:06:24;;;;;;;;;;;24.40;92.40;;;;;;4995400;28;19910;-67
2023/10/09 15:08:49;;;;;;;;;;;24.40;92.10;;;;;;4996829;28;19985;-67
2023/10/09 15:11:15;;;;;;;;;;;24.30;92.30;;;;;;4997051;28;20418;-66
2023/10/09 15:13:41;;;;;;;;;;;24.20;92.30;;;;;;4996500;28;20303;-68
2023/10/09 15:16:06;;;;;;;;;;;24.20;92.60;;;;;;4998016;28;19914;-67
2023/10/09 15:18:37;;;;;;;;;;;24.00;92.70;;;;;;4995964;28;20400;-66
2023/10/09 15:21:02;;;;;;;;;;;23.90;92.90;;;;;;4996521;28;19910;-68
2023/10/09 15:23:28;;;;;;;;;;;23.90;93.10;;;;;;4996468;28;19910;-68
2023/10/09 15:25:53;;;;;;;;;;;23.90;92.90;;;;;;4996311;28;19909;-68
2023/10/09 15:28:22;;;;;;;;;;;23.80;92.60;;;;;;4996410;28;19949;-68
2023/10/09 15:30:49;;;;;;;;;;;23.80;92.70;;;;;;4995337;28;19916;-69
2023/10/09 15:33:16;;;;;;;;;;;23.70;92.80;;;;;;4996829;28;19980;-67
2023/10/09 15:35:43;;;;;;;;;;;23.60;92.40;;;;;;4996293;28;20009;-67
2023/10/09 15:38:12;;;;;;;;;;;23.60;92.40;;;;;;4996440;28;19914;-69
2023/10/09 15:40:38;;;;;;;;;;;23.60;92.30;;;;;;4995993;28;19910;-68
2023/10/09 15:43:04;;;;;;;;;;;23.60;92.60;;;;;;4996049;28;19992;-68
2023/10/09 15:45:31;;;;;;;;;;;23.50;92.40;;;;;;5003045;28;19917;-68
2023/10/09 15:47:57;;;;;;;;;;;23.50;92.50;;;;;;5008802;28;19917;-68
2023/10/09 15:50:24;;;;;;;;;;;23.50;92.70;;;;;;5001307;28;19910;-67
2023/10/09 15:52:53;;;;;;;;;;;23.40;92.60;;;;;;4994713;28;19910;-67
2023/10/09 15:55:20;;;;;;;;;;;23.50;92.60;;;;;;4995686;28;19913;-68
2023/10/09 15:57:48;;;;;;;;;;;23.60;92.60;;;;;;4995499;28;19910;-65
2023/10/09 16:00:14;;;;;;;;;;;23.60;92.70;;;;;;4995535;28;19914;-65
2023/10/09 16:02:40;;;;;;;;;;;23.50;92.90;;;;;;4996498;28;19922;-68
2023/10/09 16:05:06;;;;;;;;;;;23.60;92.90;;;;;;4996428;28;20388;-67
2023/10/09 16:07:32;;;;;;;;;;;23.50;93.00;;;;;;4998416;28;19953;-68
2023/10/09 16:09:58;;;;;;;;;;;23.40;93.20;;;;;;4997613;28;19916;-66
2023/10/09 16:12:26;;;;;;;;;;;23.30;93.40;;;;;;4995808;28;19910;-67
2023/10/09 16:14:53;;;;;;;;;;;23.20;93.60;;;;;;4995886;28;19917;-67
2023/10/09 16:17:19;;;;;;;;;;;23.10;93.90;;;;;;4995503;28;19909;-67
2023/10/09 16:19:45;;;;;;;;;;;23.00;93.90;;;;;;4994557;28;20396;-66
2023/10/09 16:22:12;;;;;;;;;;;22.90;94.10;;;;;;4994928;28;20012;-66
2023/10/09 16:24:39;;;;;;;;;;;22.80;94.20;;;;;;4995169;28;19945;-66
2023/10/09 16:27:07;;;;;;;;;;;22.70;94.40;;;;;;4994736;28;20000;-66
2023/10/09 16:29:33;;;;;;;;;;;22.60;94.50;;;;;;4995669;28;19965;-68
2023/10/09 16:31:58;;;;;;;;;;;22.60;94.60;;;;;;4994932;28;19910;-65
2023/10/09 16:34:26;;;;;;;;;;;22.50;94.70;;;;;;4994545;28;20020;-67
2023/10/09 16:36:51;;;;;;;;;;;22.50;94.80;;;;;;4994487;28;20013;-67
2023/10/09 16:39:22;;;;;;;;;;;22.50;94.90;;;;;;4994624;28;19917;-65
2023/10/09 16:41:48;;;;;;;;;;;22.50;95.00;;;;;;4993491;28;20001;-66
2023/10/09 16:44:17;;;;;;;;;;;22.40;95.10;;;;;;4994893;28;20335;-68
2023/10/09 16:46:44;;;;;;;;;;;22.30;95.40;;;;;;4994659;28;19962;-67
2023/10/09 16:49:13;;;;;;;;;;;22.20;95.30;;;;;;4994998;28;19910;-68
2023/10/09 16:51:39;;;;;;;;;;;22.10;95.80;;;;;;4994293;28;19917;-66
2023/10/09 16:54:05;;;;;;;;;;;22.00;96.00;;;;;;4994468;28;20373;-68
2023/10/09 16:56:33;;;;;;;;;;;21.90;96.20;;;;;;4994609;28;19914;-63
2023/10/09 16:59:00;;;;;;;;;;;21.80;96.50;;;;;;4994706;28;20008;-65
2023/10/09 17:01:27;;;;;;;;;;;21.80;96.60;;;;;;4994680;28;19918;-65
2023/10/09 17:03:57;;;;;;;;;;;21.80;96.60;;;;;;4995591;28;20327;-67
2023/10/09 17:06:24;;;;;;;;;;;21.70;96.70;;;;;;4997225;28;19917;-66
2023/10/09 17:08:50;;;;;;;;;;;21.80;96.60;;;;;;4996294;28;19933;-65
2023/10/09 17:11:20;;;;;;;;;;;21.70;96.60;;;;;;4996076;28;20269;-66
2023/10/09 17:13:47;;;;;;;;;;;21.60;96.80;;;;;;4994576;28;19910;-65
2023/10/09 17:16:16;;;;;;;;;;;21.60;96.90;;;;;;4994254;28;19972;-66
2023/10/09 17:18:54;;;;;;;;;;;21.60;97.10;;;;;;4994099;28;19952;-66
2023/10/09 17:21:23;;;;;;;;;;;21.70;97.00;;;;;;4993919;28;19917;-65
2023/10/09 17:23:49;;;;;;;;;;;21.80;96.90;;;;;;4994517;28;19910;-65
2023/10/09 17:26:22;;;;;;;;;;;21.80;96.90;;;;;;4992816;28;20391;-66
2023/10/09 17:28:48;;;;;;;;;;;21.90;97.00;;;;;;4994535;28;19944;-65
2023/10/09 17:31:19;;;;;;;;;;;21.70;97.20;;;;;;4996619;28;19910;-68
2023/10/09 17:33:45;;;;;;;;;;;21.60;97.40;;;;;;4998333;28;19917;-67
2023/10/09 17:36:16;;;;;;;;;;;21.50;97.60;;;;;;4997635;28;19914;-67
2023/10/09 17:38:51;;;;;;;;;;;21.40;97.80;;;;;;4997981;28;20004;-65
2023/10/09 17:41:17;;;;;;;;;;;21.20;98.20;;;;;;4998039;28;19917;-66
2023/10/09 17:43:43;;;;;;;;;;;21.10;98.50;;;;;;4998253;28;19910;-64
2023/10/09 17:46:11;;;;;;;;;;;21.00;98.70;;;;;;4998918;28;19920;-65
2023/10/09 17:48:37;;;;;;;;;;;21.00;98.90;;;;;;4997808;28;20049;-62
2023/10/09 17:51:08;;;;;;;;;;;20.90;99.10;;;;;;5001148;28;19961;-64
2023/10/09 17:53:40;;;;;;;;;;;20.80;99.30;;;;;;5000284;28;19917;-66
2023/10/09 17:56:06;;;;;;;;;;;20.90;99.40;;;;;;4997931;28;19913;-65
2023/10/09 17:58:32;;;;;;;;;;;20.90;99.40;;;;;;4996878;28;19913;-68
2023/10/09 18:01:04;;;;;;;;;;;21.00;99.30;;;;;;4998152;28;19972;-65
2023/10/09 18:03:30;;;;;;;;;;;21.00;99.50;;;;;;4997596;28;19964;-65
2023/10/09 18:05:56;;;;;;;;;;;21.00;99.80;;;;;;4998098;28;20319;-66
2023/10/09 18:08:25;;;;;;;;;;;21.00;99.40;;;;;;4997047;28;19937;-67
2023/10/09 18:10:55;;;;;;;;;;;21.00;99.60;;;;;;4997822;28;20000;-65
2023/10/09 18:13:21;;;;;;;;;;;20.90;99.70;;;;;;4997966;28;19960;-64
2023/10/09 18:15:47;;;;;;;;;;;20.90;99.90;;;;;;4998187;28;19917;-66
2023/10/09 18:18:19;;;;;;;;;;;20.90;99.80;;;;;;4997546;28;19964;-68
2023/10/09 18:20:45;;;;;;;;;;;20.90;99.90;;;;;;4996551;28;19910;-66
2023/10/09 18:23:11;;;;;;;;;;;21.00;99.90;;;;;;4997915;28;19910;-67
2023/10/09 18:25:37;;;;;;;;;;;20.90;99.90;;;;;;4996837;28;19965;-68
2023/10/09 18:28:05;;;;;;;;;;;20.80;99.90;;;;;;4997763;28;19910;-68
2023/10/09 18:30:31;;;;;;;;;;;20.70;99.90;;;;;;4996864;28;19920;-68
2023/10/09 18:32:59;;;;;;;;;;;20.80;99.90;;;;;;4998044;28;19909;-64
2023/10/09 18:35:30;;;;;;;;;;;20.70;99.90;;;;;;4996961;28;19952;-67
2023/10/09 18:37:59;;;;;;;;;;;20.80;99.90;;;;;;4978442;28;20301;-69
2023/10/09 18:40:30;;;;;;;;;;;20.90;99.90;;;;;;4977595;28;19917;-69
2023/10/09 18:42:57;;;;;;;;;;;21.00;99.90;;;;;;4977879;28;19910;-68
2023/10/09 18:45:22;;;;;;;;;;;20.90;99.80;;;;;;4978293;28;20016;-68
2023/10/09 18:47:47;;;;;;;;;;;20.90;99.80;;;;;;4993119;28;20001;-68
2023/10/09 18:50:16;;;;;;;;;;;20.90;99.90;;;;;;4999414;28;19909;-68
2023/10/09 18:52:45;;;;;;;;;;;20.70;99.90;;;;;;4999182;28;19964;-68
2023/10/09 18:55:11;;;;;;;;;;;20.80;99.80;;;;;;4997579;28;20288;-70
2023/10/09 18:57:37;;;;;;;;;;;20.80;99.50;;;;;;4997255;28;20269;-68
2023/10/09 19:00:06;;;;;;;;;;;20.90;99.50;;;;;;4997183;28;20388;-68
2023/10/09 19:02:32;;;;;;;;;;;20.70;99.50;;;;;;4996589;28;19933;-69
2023/10/09 19:04:58;;;;;;;;;;;20.70;99.50;;;;;;4996157;28;19910;-68
2023/10/09 19:07:26;;;;;;;;;;;20.60;99.50;;;;;;4996912;28;19913;-69
2023/10/09 19:09:55;;;;;;;;;;;20.60;99.30;;;;;;4995142;28;19914;-68
2023/10/09 19:12:20;;;;;;;;;;;20.70;99.30;;;;;;4996801;28;19992;-68
2023/10/09 19:14:47;;;;;;;;;;;20.70;99.20;;;;;;4996646;28;20009;-68
2023/10/09 19:17:13;;;;;;;;;;;20.60;99.40;;;;;;4996316;28;20000;-68
2023/10/09 19:19:39;;;;;;;;;;;20.60;99.20;;;;;;4996563;28;20325;-69
2023/10/09 19:22:04;;;;;;;;;;;20.60;99.20;;;;;;4996647;28;20388;-68
2023/10/09 19:24:30;;;;;;;;;;;20.60;99.20;;;;;;4996447;28;19916;-67
2023/10/09 19:26:56;;;;;;;;;;;20.60;99.00;;;;;;4996304;28;19910;-68
2023/10/09 19:29:21;;;;;;;;;;;20.60;98.90;;;;;;4996354;28;19964;-68
2023/10/09 19:31:49;;;;;;;;;;;20.60;98.90;;;;;;4996158;28;19933;-68
2023/10/09 19:34:14;;;;;;;;;;;20.60;98.90;;;;;;4996199;28;19916;-69
2023/10/09 19:36:42;;;;;;;;;;;20.50;99.00;;;;;;4996222;28;19910;-68
2023/10/09 19:39:08;;;;;;;;;;;20.40;99.10;;;;;;4996614;28;20371;-68
2023/10/09 19:41:35;;;;;;;;;;;20.40;99.10;;;;;;4996105;28;19910;-69
2023/10/09 19:44:04;;;;;;;;;;;20.50;99.10;;;;;;4996094;28;19914;-69
2023/10/09 19:46:29;;;;;;;;;;;20.50;99.10;;;;;;4995669;28;19960;-67
2023/10/09 19:48:55;;;;;;;;;;;20.30;99.20;;;;;;4996013;28;19909;-67
2023/10/09 19:51:23;;;;;;;;;;;20.30;99.50;;;;;;4996040;28;19917;-69
2023/10/09 19:53:48;;;;;;;;;;;20.20;99.50;;;;;;4995190;28;19992;-68
2023/10/09 19:56:18;;;;;;;;;;;20.10;99.70;;;;;;4994133;28;20430;-68
2023/10/09 19:58:46;;;;;;;;;;;20.00;99.70;;;;;;4995741;28;19909;-67
2023/10/09 20:01:12;;;;;;;;;;;19.90;99.90;;;;;;4994919;28;20387;-66
2023/10/09 20:03:37;;;;;;;;;;;20.10;99.80;;;;;;4994822;28;19967;-68
2023/10/09 20:06:03;;;;;;;;;;;20.00;99.80;;;;;;4988755;28;20388;-69
2023/10/09 20:08:29;;;;;;;;;;;20.00;99.80;;;;;;4988929;28;19928;-68
2023/10/09 20:10:55;;;;;;;;;;;19.90;99.90;;;;;;4988222;28;19911;-68
2023/10/09 20:13:23;;;;;;;;;;;19.80;99.90;;;;;;4977268;28;19997;-68
2023/10/09 20:15:55;;;;;;;;;;;19.70;99.90;;;;;;4977878;28;19926;-69
2023/10/09 20:18:20;;;;;;;;;;;19.70;99.90;;;;;;4994398;28;19910;-68